createdAt,value
2022-10-10T00:01:24.083Z,8.30
2022-10-10T00:03:53.599Z,8.40
2022-10-10T00:06:24.141Z,8.40
2022-10-10T00:08:52.854Z,8.50
2022-10-10T00:11:23.719Z,8.60
2022-10-10T00:13:53.242Z,8.70
2022-10-10T00:16:21.866Z,8.80
2022-10-10T00:18:52.011Z,8.90
2022-10-10T00:21:20.585Z,9.00
2022-10-10T00:23:50.399Z,9.10
2022-10-10T00:26:19.613Z,9.10
2022-10-10T00:28:48.271Z,9.20
2022-10-10T00:31:17.090Z,9.20
2022-10-10T00:33:45.941Z,9.20
2022-10-10T00:36:14.771Z,9.20
2022-10-10T00:38:43.355Z,9.30
2022-10-10T00:41:13.723Z,9.30
2022-10-10T00:43:42.375Z,9.30
2022-10-10T00:46:10.820Z,9.30
2022-10-10T00:48:43.809Z,9.30
2022-10-10T00:51:15.760Z,9.30
2022-10-10T00:53:48.308Z,9.30
2022-10-10T00:56:20.642Z,9.30
2022-10-10T00:58:52.218Z,9.30
2022-10-10T01:01:20.701Z,9.30
2022-10-10T01:03:49.645Z,9.30
2022-10-10T01:06:18.240Z,9.30
2022-10-10T01:08:46.690Z,9.30
2022-10-10T01:11:35.906Z,9.30
2022-10-10T01:14:17.325Z,9.30
2022-10-10T01:16:52.099Z,9.30
2022-10-10T01:19:40.171Z,9.30
2022-10-10T01:22:17.341Z,9.20
2022-10-10T01:24:57.487Z,9.30
2022-10-10T01:27:32.022Z,9.20
2022-10-10T01:30:07.131Z,9.20
2022-10-10T01:32:41.097Z,9.20
2022-10-10T01:35:29.940Z,9.20
2022-10-10T01:38:07.379Z,9.20
2022-10-10T01:40:45.615Z,9.20
2022-10-10T01:43:14.297Z,9.20
2022-10-10T01:45:48.477Z,9.20
2022-10-10T01:48:20.331Z,9.20
2022-10-10T01:51:16.590Z,9.20
2022-10-10T01:53:51.080Z,9.20
2022-10-10T01:56:30.167Z,9.20
2022-10-10T01:59:12.415Z,9.20
2022-10-10T02:01:49.068Z,9.20
2022-10-10T02:04:25.463Z,9.20
2022-10-10T02:06:58.473Z,9.20
2022-10-10T02:09:34.548Z,9.20
2022-10-10T02:12:04.477Z,9.20
2022-10-10T02:14:37.956Z,9.20
2022-10-10T02:17:11.949Z,9.20
2022-10-10T02:19:44.128Z,9.20
2022-10-10T02:22:13.471Z,9.20
2022-10-10T02:24:42.478Z,9.20
2022-10-10T02:27:18.079Z,9.20
2022-10-10T02:29:48.609Z,9.20
2022-10-10T02:32:23.395Z,9.20
2022-10-10T02:34:56.533Z,9.20
2022-10-10T02:37:26.112Z,9.20
2022-10-10T02:40:00.522Z,9.20
2022-10-10T02:42:29.645Z,9.20
2022-10-10T02:44:58.626Z,9.20
2022-10-10T02:47:28.511Z,9.10
2022-10-10T02:49:56.988Z,9.10
2022-10-10T02:52:26.036Z,9.10
2022-10-10T02:54:54.384Z,9.10
2022-10-10T02:57:22.741Z,9.10
2022-10-10T02:59:51.092Z,9.10
2022-10-10T03:02:19.451Z,9.20
2022-10-10T03:04:49.243Z,9.20
2022-10-10T03:07:17.635Z,9.20
2022-10-10T03:09:46.036Z,9.10
2022-10-10T03:12:14.376Z,9.20
2022-10-10T03:14:42.758Z,9.20
2022-10-10T03:17:11.330Z,9.20
2022-10-10T03:19:39.744Z,9.10
2022-10-10T03:22:09.483Z,9.10
2022-10-10T03:24:37.847Z,9.10
2022-10-10T03:27:06.264Z,9.00
2022-10-10T03:29:34.856Z,9.00
2022-10-10T03:32:03.254Z,9.00
2022-10-10T03:34:31.784Z,9.00
2022-10-10T03:37:00.144Z,9.00
2022-10-10T03:39:30.034Z,9.00
2022-10-10T03:41:58.428Z,8.90
2022-10-10T03:44:27.084Z,9.00
2022-10-10T03:46:55.476Z,8.90
2022-10-10T03:49:23.943Z,8.90
2022-10-10T03:51:53.547Z,8.90
2022-10-10T03:54:21.968Z,8.90
2022-10-10T03:56:51.661Z,8.90
2022-10-10T03:59:20.048Z,8.80
2022-10-10T04:01:48.413Z,8.80
2022-10-10T04:04:16.863Z,8.80
2022-10-10T04:06:45.346Z,8.80
2022-10-10T04:09:13.725Z,8.80
2022-10-10T04:11:43.336Z,8.80
2022-10-10T04:14:13.109Z,8.80
2022-10-10T04:16:41.556Z,8.80
2022-10-10T04:19:09.994Z,8.80
2022-10-10T04:21:38.389Z,8.80
2022-10-10T04:24:06.926Z,8.80
2022-10-10T04:26:35.421Z,8.70
2022-10-10T04:29:03.936Z,8.70
2022-10-10T04:31:33.851Z,8.80
2022-10-10T04:34:02.359Z,8.70
2022-10-10T04:36:30.744Z,8.70
2022-10-10T04:38:59.404Z,8.70
2022-10-10T04:41:27.761Z,8.70
2022-10-10T04:43:56.156Z,8.70
2022-10-10T04:46:24.931Z,8.70
2022-10-10T04:48:54.657Z,8.60
2022-10-10T04:51:23.171Z,8.70
2022-10-10T04:53:51.539Z,8.80
2022-10-10T04:56:19.903Z,8.60
2022-10-10T04:58:48.305Z,8.70
2022-10-10T05:01:16.678Z,8.60
2022-10-10T05:03:45.074Z,8.60
2022-10-10T05:06:14.856Z,8.60
2022-10-10T05:08:43.226Z,8.60
2022-10-10T05:11:11.585Z,8.60
2022-10-10T05:13:39.976Z,8.60
2022-10-10T05:16:08.395Z,8.60
2022-10-10T05:18:38.839Z,8.60
2022-10-10T05:21:07.739Z,8.60
2022-10-10T05:23:38.146Z,8.60
2022-10-10T05:26:06.757Z,8.60
2022-10-10T05:28:36.467Z,8.70
2022-10-10T05:31:06.021Z,8.50
2022-10-10T05:33:35.167Z,8.50
2022-10-10T05:36:05.750Z,8.50
2022-10-10T05:38:34.220Z,8.50
2022-10-10T05:41:04.739Z,8.50
2022-10-10T05:43:33.153Z,8.50
2022-10-10T05:46:01.803Z,8.50
2022-10-10T05:48:30.374Z,8.50
2022-10-10T05:51:00.058Z,8.50
2022-10-10T05:53:29.979Z,8.50
2022-10-10T05:55:58.508Z,8.50
2022-10-10T05:58:28.788Z,8.50
2022-10-10T06:01:02.742Z,8.50
2022-10-10T06:03:31.207Z,8.50
2022-10-10T06:05:59.664Z,8.50
2022-10-10T06:08:31.168Z,8.40
2022-10-10T06:11:03.957Z,8.40
2022-10-10T06:13:33.739Z,8.40
2022-10-10T06:16:02.216Z,8.40
2022-10-10T06:18:30.873Z,8.30
2022-10-10T06:21:02.639Z,8.30
2022-10-10T06:23:31.240Z,8.30
2022-10-10T06:25:59.760Z,8.30
2022-10-10T06:28:28.215Z,8.30
2022-10-10T06:31:01.647Z,8.30
2022-10-10T06:33:30.364Z,8.40
2022-10-10T06:35:58.758Z,8.50
2022-10-10T06:38:28.322Z,8.40
2022-10-10T06:41:00.421Z,8.50
2022-10-10T06:43:29.105Z,8.50
2022-10-10T06:45:59.313Z,8.60
2022-10-10T06:48:29.901Z,8.70
2022-10-10T06:51:02.396Z,8.70
2022-10-10T06:53:31.394Z,8.80
2022-10-10T06:56:00.554Z,9.00
2022-10-10T06:58:30.127Z,9.20
2022-10-10T07:01:02.194Z,10.00
2022-10-10T07:03:31.637Z,10.20
2022-10-10T07:06:01.647Z,10.60
2022-10-10T07:08:31.201Z,11.00
2022-10-10T07:10:59.620Z,11.30
2022-10-10T07:13:27.995Z,11.60
2022-10-10T07:15:56.506Z,11.70
2022-10-10T07:18:26.370Z,11.80
2022-10-10T07:20:57.235Z,11.70
2022-10-10T07:23:26.496Z,11.70
2022-10-10T07:26:00.396Z,11.60
2022-10-10T07:28:28.993Z,11.60
2022-10-10T07:31:01.139Z,11.70
2022-10-10T07:33:34.381Z,12.00
2022-10-10T07:36:02.859Z,12.40
2022-10-10T07:38:31.299Z,12.90
2022-10-10T07:40:59.683Z,13.50
2022-10-10T07:43:28.143Z,13.90
2022-10-10T07:45:57.154Z,14.20
2022-10-10T07:48:25.701Z,14.40
2022-10-10T07:50:55.400Z,14.60
2022-10-10T07:53:24.085Z,14.90
2022-10-10T07:55:52.535Z,15.10
2022-10-10T07:58:20.938Z,15.30
2022-10-10T08:00:49.324Z,15.20
2022-10-10T08:03:17.753Z,15.00
2022-10-10T08:05:47.008Z,14.70
2022-10-10T08:08:16.823Z,14.40
2022-10-10T08:10:45.465Z,14.10
2022-10-10T08:13:13.856Z,13.80
2022-10-10T08:15:42.704Z,13.60
2022-10-10T08:18:11.232Z,13.30
2022-10-10T08:20:39.576Z,13.10
2022-10-10T08:23:07.936Z,13.00
2022-10-10T08:25:37.681Z,12.90
2022-10-10T08:28:06.471Z,12.90
2022-10-10T08:30:35.024Z,12.80
2022-10-10T08:33:03.420Z,12.90
2022-10-10T08:35:31.818Z,12.90
2022-10-10T08:38:00.168Z,12.90
2022-10-10T08:40:28.795Z,13.00
2022-10-10T08:43:02.982Z,13.20
2022-10-10T08:45:34.119Z,13.30
2022-10-10T08:48:06.440Z,13.50
2022-10-10T08:50:39.395Z,13.70
2022-10-10T08:53:11.875Z,13.90
2022-10-10T08:55:43.783Z,14.10
2022-10-10T08:58:20.443Z,14.30
2022-10-10T09:00:52.282Z,14.50
2022-10-10T09:03:28.383Z,14.70
2022-10-10T09:06:15.635Z,14.80
2022-10-10T09:08:54.981Z,15.00
2022-10-10T09:11:34.980Z,15.10
2022-10-10T09:14:14.126Z,15.20
2022-10-10T09:16:52.712Z,15.20
2022-10-10T09:19:32.958Z,15.30
2022-10-10T09:22:05.946Z,15.20
2022-10-10T09:24:42.524Z,15.30
2022-10-10T09:27:16.209Z,15.30
2022-10-10T09:29:53.273Z,15.40
2022-10-10T09:32:24.382Z,15.40
2022-10-10T09:35:00.149Z,15.40
2022-10-10T09:37:46.850Z,15.40
2022-10-10T09:40:23.451Z,15.50
2022-10-10T09:42:52.276Z,15.40
2022-10-10T09:45:28.090Z,15.40
2022-10-10T09:47:57.391Z,15.30
2022-10-10T09:50:26.304Z,15.40
2022-10-10T09:52:54.932Z,15.40
2022-10-10T09:55:27.560Z,15.40
2022-10-10T09:58:02.196Z,15.50
2022-10-10T10:00:37.286Z,15.50
2022-10-10T10:03:12.194Z,15.50
2022-10-10T10:05:41.350Z,15.60
2022-10-10T10:08:20.998Z,15.70
2022-10-10T10:10:49.444Z,15.70
2022-10-10T10:13:23.920Z,15.80
2022-10-10T10:16:03.942Z,15.90
2022-10-10T10:18:38.841Z,16.10
2022-10-10T10:21:14.912Z,16.10
2022-10-10T10:23:45.051Z,16.10
2022-10-10T10:26:19.821Z,16.20
2022-10-10T10:28:49.889Z,16.30
2022-10-10T10:31:31.024Z,16.30
2022-10-10T10:34:14.688Z,16.40
2022-10-10T10:36:53.717Z,16.40
2022-10-10T10:39:39.320Z,16.40
2022-10-10T10:42:20.203Z,16.50
2022-10-10T10:44:55.200Z,16.50
2022-10-10T10:50:31.006Z,16.60
2022-10-10T10:53:03.725Z,16.60
2022-10-10T10:55:40.257Z,16.70
2022-10-10T11:01:57.854Z,16.80
2022-10-10T11:05:22.282Z,16.90
2022-10-10T11:07:50.746Z,17.00
2022-10-10T11:10:29.054Z,17.00
2022-10-10T11:13:08.881Z,17.00
2022-10-10T11:18:36.290Z,17.00
2022-10-10T11:21:12.413Z,17.10
2022-10-10T11:23:44.547Z,17.10
2022-10-10T11:26:19.046Z,17.00
2022-10-10T11:28:52.547Z,16.90
2022-10-10T11:31:24.655Z,16.90
2022-10-10T11:33:57.668Z,16.80
2022-10-10T11:36:31.045Z,16.80
2022-10-10T11:39:04.583Z,16.90
2022-10-10T11:41:37.741Z,17.00
2022-10-10T11:44:12.992Z,17.30
2022-10-10T11:46:44.539Z,17.20
2022-10-10T11:49:21.553Z,17.30
2022-10-10T11:52:32.548Z,17.50
2022-10-10T11:55:07.048Z,17.70
2022-10-10T11:57:40.752Z,17.70
2022-10-10T12:00:14.041Z,17.70
2022-10-10T12:02:44.801Z,17.70
2022-10-10T12:05:24.434Z,17.70
2022-10-10T12:08:08.371Z,17.50
2022-10-10T12:10:40.241Z,17.40
2022-10-10T12:13:25.955Z,17.30
2022-10-10T12:15:57.130Z,17.10
2022-10-10T12:18:29.023Z,17.00
2022-10-10T12:21:07.125Z,16.80
2022-10-10T12:23:37.599Z,16.70
2022-10-10T12:26:06.294Z,16.60
2022-10-10T12:29:03.484Z,16.40
2022-10-10T12:31:34.213Z,16.20
2022-10-10T12:34:16.295Z,16.10
2022-10-10T12:36:57.441Z,16.00
2022-10-10T12:39:38.181Z,15.90
2022-10-10T12:42:28.289Z,15.90
2022-10-10T12:44:58.138Z,15.80
2022-10-10T12:48:05.467Z,15.70
2022-10-10T12:50:36.823Z,15.60
2022-10-10T12:53:08.048Z,15.60
2022-10-10T12:55:43.522Z,15.50
2022-10-10T12:58:26.677Z,15.50
2022-10-10T13:01:00.857Z,15.50
2022-10-10T13:03:33.677Z,15.50
2022-10-10T13:06:07.543Z,15.50
2022-10-10T13:08:38.255Z,15.50
2022-10-10T13:11:10.758Z,15.50
2022-10-10T13:13:39.812Z,15.50
2022-10-10T13:16:14.132Z,15.40
2022-10-10T13:18:49.160Z,15.40
2022-10-10T13:21:22.067Z,15.30
2022-10-10T13:26:46.560Z,15.20
2022-10-10T13:29:26.073Z,15.20
2022-10-10T13:32:00.343Z,15.10
2022-10-10T13:34:32.820Z,15.10
2022-10-10T13:37:03.752Z,15.00
2022-10-10T13:39:37.477Z,15.10
2022-10-10T13:42:07.806Z,15.00
2022-10-10T13:44:48.935Z,15.00
2022-10-10T13:47:42.788Z,15.00
2022-10-10T13:50:21.234Z,14.90
2022-10-10T13:52:49.822Z,15.00
2022-10-10T13:55:26.330Z,14.90
2022-10-10T13:58:00.830Z,14.90
2022-10-10T14:00:32.921Z,14.90
2022-10-10T14:03:02.855Z,14.70
2022-10-10T14:05:33.148Z,14.60
2022-10-10T14:08:01.688Z,14.40
2022-10-10T14:10:33.679Z,14.20
2022-10-10T14:13:02.332Z,14.10
2022-10-10T14:15:35.634Z,14.00
2022-10-10T14:18:16.574Z,13.90
2022-10-10T14:20:45.546Z,13.80
2022-10-10T14:23:14.776Z,13.70
2022-10-10T14:25:44.932Z,13.60
2022-10-10T14:28:17.762Z,13.60
2022-10-10T14:30:46.426Z,13.60
2022-10-10T14:33:18.425Z,13.50
2022-10-10T14:35:48.961Z,13.50
2022-10-10T14:38:17.927Z,13.50
2022-10-10T14:40:49.306Z,13.30
2022-10-10T14:43:18.186Z,13.40
2022-10-10T14:45:46.556Z,13.40
2022-10-10T14:48:16.353Z,13.60
2022-10-10T14:50:46.966Z,13.50
2022-10-10T14:53:16.379Z,13.60
2022-10-10T14:55:45.944Z,13.60
2022-10-10T14:58:18.879Z,13.70
2022-10-10T15:00:47.515Z,13.60
2022-10-10T15:03:17.359Z,13.70
2022-10-10T15:05:45.793Z,13.70
2022-10-10T15:08:16.484Z,13.80
2022-10-10T15:10:46.003Z,13.80
2022-10-10T15:13:15.606Z,14.00
2022-10-10T15:15:44.030Z,13.90
2022-10-10T15:18:39.656Z,13.90
2022-10-10T15:21:02.824Z,14.00
2022-10-10T15:23:31.401Z,14.00
2022-10-10T15:26:01.123Z,14.00
2022-10-10T15:28:29.558Z,14.00
2022-10-10T15:30:58.904Z,13.90
2022-10-10T15:33:27.560Z,13.90
2022-10-10T15:36:09.190Z,13.90
2022-10-10T15:38:40.172Z,13.90
2022-10-10T15:41:10.262Z,13.80
2022-10-10T15:43:44.668Z,13.80
2022-10-10T15:46:13.107Z,13.80
2022-10-10T15:48:41.541Z,13.70
2022-10-10T15:51:10.223Z,13.70
2022-10-10T15:53:40.011Z,13.70
2022-10-10T15:56:10.556Z,13.70
2022-10-10T15:58:40.237Z,13.60
2022-10-10T16:01:14.387Z,13.60
2022-10-10T16:03:43.432Z,13.50
2022-10-10T16:06:12.487Z,13.50
2022-10-10T16:08:43.188Z,13.50
2022-10-10T16:11:13.653Z,13.40
2022-10-10T16:13:43.150Z,13.30
2022-10-10T16:16:12.419Z,13.30
2022-10-10T16:18:42.212Z,13.20
2022-10-10T16:21:13.564Z,13.30
2022-10-10T16:23:43.340Z,13.00
2022-10-10T16:26:14.628Z,13.00
2022-10-10T16:28:43.518Z,13.00
2022-10-10T16:31:14.491Z,12.90
2022-10-10T16:33:43.756Z,12.80
2022-10-10T16:36:14.470Z,12.80
2022-10-10T16:38:44.747Z,12.70
2022-10-10T16:41:35.151Z,12.60
2022-10-10T16:44:03.956Z,12.50
2022-10-10T16:46:32.388Z,12.50
2022-10-10T16:49:01.505Z,12.40
2022-10-10T16:51:31.444Z,12.30
2022-10-10T16:54:05.749Z,12.20
2022-10-10T16:56:34.503Z,12.20
2022-10-10T16:59:03.253Z,12.10
2022-10-10T17:01:31.706Z,12.00
2022-10-10T17:04:01.073Z,11.90
2022-10-10T17:06:35.282Z,11.80
2022-10-10T17:09:07.111Z,11.70
2022-10-10T17:11:35.972Z,11.60
2022-10-10T17:14:04.568Z,11.60
2022-10-10T17:19:21.338Z,11.40
2022-10-10T17:21:49.714Z,11.30
2022-10-10T17:24:19.476Z,11.30
2022-10-10T17:26:48.148Z,11.20
2022-10-10T17:29:16.619Z,11.20
2022-10-10T17:31:45.050Z,11.20
2022-10-10T17:34:13.450Z,11.00
2022-10-10T17:36:42.039Z,11.00
2022-10-10T17:39:10.433Z,11.00
2022-10-10T17:41:40.522Z,10.90
2022-10-10T17:44:10.490Z,10.80
2022-10-10T17:46:39.566Z,10.70
2022-10-10T17:49:10.697Z,10.60
2022-10-10T17:51:41.043Z,10.70
2022-10-10T17:54:11.068Z,10.50
2022-10-10T17:56:42.701Z,10.40
2022-10-10T17:59:11.186Z,10.30
2022-10-10T18:01:40.355Z,10.30
2022-10-10T18:04:08.883Z,10.20
2022-10-10T18:06:38.722Z,10.20
2022-10-10T18:09:07.375Z,10.00
2022-10-10T18:11:35.812Z,10.10
2022-10-10T18:14:05.613Z,10.00
2022-10-10T18:16:35.352Z,10.00
2022-10-10T18:19:05.859Z,9.90
2022-10-10T18:21:34.911Z,9.90
2022-10-10T18:24:03.306Z,9.80
2022-10-10T18:26:33.643Z,9.80
2022-10-10T18:29:02.047Z,9.80
2022-10-10T18:31:33.655Z,9.70
2022-10-10T18:34:02.844Z,9.80
2022-10-10T18:36:34.456Z,9.70
2022-10-10T18:39:05.091Z,9.60
2022-10-10T18:41:34.310Z,9.60
2022-10-10T18:44:04.280Z,9.50
2022-10-10T18:46:34.961Z,9.50
2022-10-10T18:49:04.373Z,9.50
2022-10-10T18:51:33.285Z,9.40
2022-10-10T18:54:03.905Z,9.40
2022-10-10T18:56:33.528Z,9.30
2022-10-10T18:59:03.552Z,9.30
2022-10-10T19:01:36.524Z,9.30
2022-10-10T19:04:07.080Z,9.20
2022-10-10T19:06:36.537Z,9.20
2022-10-10T19:09:07.470Z,9.20
2022-10-10T19:11:39.099Z,9.20
2022-10-10T19:14:09.959Z,9.10
2022-10-10T19:16:40.500Z,9.10
2022-10-10T19:19:09.600Z,9.10
2022-10-10T19:21:39.334Z,9.00
2022-10-10T19:24:09.315Z,9.00
2022-10-10T19:26:37.952Z,9.00
2022-10-10T19:29:08.721Z,8.90
2022-10-10T19:31:40.833Z,9.00
2022-10-10T19:34:09.323Z,8.90
2022-10-10T19:36:39.874Z,8.90
2022-10-10T19:39:10.135Z,8.90
2022-10-10T19:41:38.548Z,8.80
2022-10-10T19:44:06.975Z,8.80
2022-10-10T19:46:37.340Z,8.80
2022-10-10T19:49:07.533Z,8.70
2022-10-10T19:51:36.034Z,8.70
2022-10-10T19:54:04.667Z,8.80
2022-10-10T19:56:33.056Z,8.70
2022-10-10T19:59:04.351Z,8.60
2022-10-10T20:01:33.240Z,8.60
2022-10-10T20:04:01.756Z,8.60
2022-10-10T20:06:31.540Z,8.60
2022-10-10T20:08:59.951Z,8.50
2022-10-10T20:11:28.377Z,8.50
2022-10-10T20:13:57.378Z,8.50
2022-10-10T20:16:27.567Z,8.50
2022-10-10T20:18:57.676Z,8.40
2022-10-10T20:21:31.518Z,8.40
2022-10-10T20:24:02.985Z,8.40
2022-10-10T20:26:31.471Z,8.30
2022-10-10T20:29:00.631Z,8.30
2022-10-10T20:31:32.372Z,8.30
2022-10-10T20:34:01.709Z,8.30
2022-10-10T20:36:31.547Z,8.30
2022-10-10T20:39:04.652Z,8.20
2022-10-10T20:41:34.781Z,8.20
2022-10-10T20:44:05.397Z,8.20
2022-10-10T20:46:35.827Z,8.10
2022-10-10T20:49:06.539Z,8.10
2022-10-10T20:51:35.165Z,8.10
2022-10-10T20:54:06.415Z,8.10
2022-10-10T20:56:36.376Z,8.10
2022-10-10T20:59:05.016Z,8.00
2022-10-10T21:01:33.464Z,8.00
2022-10-10T21:04:02.269Z,8.00
2022-10-10T21:06:32.592Z,8.00
2022-10-10T21:09:02.651Z,8.00
2022-10-10T21:11:32.390Z,8.00
2022-10-10T21:14:01.813Z,7.90
2022-10-10T21:16:32.520Z,7.90
2022-10-10T21:19:01.554Z,8.10
2022-10-10T21:21:32.592Z,7.90
2022-10-10T21:24:02.082Z,7.90
2022-10-10T21:26:32.796Z,7.90
2022-10-10T21:29:01.677Z,7.90
2022-10-10T21:31:32.538Z,7.90
2022-10-10T21:34:02.145Z,7.80
2022-10-10T21:36:31.579Z,7.80
2022-10-10T21:39:01.541Z,7.80
2022-10-10T21:41:30.117Z,7.80
2022-10-10T21:44:00.713Z,7.70
2022-10-10T21:46:35.828Z,7.80
2022-10-10T21:49:06.819Z,7.70
2022-10-10T21:51:37.783Z,7.70
2022-10-10T21:54:07.183Z,7.60
2022-10-10T21:56:35.771Z,7.60
2022-10-10T21:59:05.956Z,7.60
2022-10-10T22:01:35.030Z,7.60
2022-10-10T22:04:03.707Z,7.60
2022-10-10T22:06:32.804Z,7.50
2022-10-10T22:09:02.611Z,7.50
2022-10-10T22:11:33.175Z,7.50
2022-10-10T22:14:03.199Z,7.50
2022-10-10T22:16:33.907Z,7.50
2022-10-10T22:19:02.604Z,7.60
2022-10-10T22:21:32.529Z,7.50
2022-10-10T22:24:02.545Z,7.60
2022-10-10T22:26:31.808Z,7.40
2022-10-10T22:29:00.478Z,7.40
2022-10-10T22:31:30.022Z,7.40
2022-10-10T22:33:59.843Z,7.40
2022-10-10T22:36:28.274Z,7.40
2022-10-10T22:38:56.791Z,7.60
2022-10-10T22:41:25.337Z,7.40
2022-10-10T22:43:53.736Z,7.40
2022-10-10T22:46:22.280Z,7.30
2022-10-10T22:48:50.729Z,7.30
2022-10-10T22:51:20.501Z,7.30
2022-10-10T22:53:50.200Z,7.30
2022-10-10T22:56:20.527Z,7.30
2022-10-10T22:58:49.800Z,7.30
2022-10-10T23:01:20.200Z,7.20
2022-10-10T23:03:48.772Z,7.20
2022-10-10T23:06:17.667Z,7.20
2022-10-10T23:08:47.463Z,7.20
2022-10-10T23:11:15.935Z,7.10
2022-10-10T23:13:44.799Z,7.10
2022-10-10T23:16:13.223Z,7.10
2022-10-10T23:18:41.654Z,7.10
2022-10-10T23:21:10.037Z,7.10
2022-10-10T23:23:38.436Z,7.10
2022-10-10T23:26:09.732Z,7.10
2022-10-10T23:28:39.378Z,7.10
2022-10-10T23:31:09.850Z,7.00
2022-10-10T23:33:38.735Z,7.00
2022-10-10T23:36:09.222Z,7.00
2022-10-10T23:38:38.314Z,7.00
2022-10-10T23:41:09.257Z,6.90
2022-10-10T23:43:37.975Z,6.90
2022-10-10T23:46:06.976Z,6.90
2022-10-10T23:48:37.404Z,6.90
2022-10-10T23:51:06.531Z,6.80
2022-10-10T23:53:35.330Z,6.80
2022-10-10T23:56:04.029Z,6.80
2022-10-10T23:58:34.191Z,6.80
